sensor_id;sensor_type;location;lat;lon;timestamp;P1;durP1;ratioP1;P2;durP2;ratioP2
26191;SDS011;13935;55.672;37.764;2023-08-06T00:00:34;12.95;;;9.82;;
26191;SDS011;13935;55.672;37.764;2023-08-06T00:01:37;13.38;;;9.10;;
26191;SDS011;13935;55.672;37.764;2023-08-06T00:02:39;13.10;;;9.10;;
26191;SDS011;13935;55.672;37.764;2023-08-06T00:03:41;14.93;;;9.23;;
26191;SDS011;13935;55.672;37.764;2023-08-06T00:04:44;13.05;;;9.15;;
26191;SDS011;13935;55.672;37.764;2023-08-06T00:05:46;11.45;;;8.73;;
26191;SDS011;13935;55.672;37.764;2023-08-06T00:06:48;15.20;;;8.82;;
26191;SDS011;13935;55.672;37.764;2023-08-06T00:07:50;10.02;;;8.15;;
26191;SDS011;13935;55.672;37.764;2023-08-06T00:08:52;12.27;;;8.50;;
26191;SDS011;13935;55.672;37.764;2023-08-06T00:09:57;13.98;;;8.68;;
26191;SDS011;13935;55.672;37.764;2023-08-06T00:10:59;11.60;;;8.70;;
26191;SDS011;13935;55.672;37.764;2023-08-06T00:12:01;12.50;;;8.38;;
26191;SDS011;13935;55.672;37.764;2023-08-06T00:13:05;11.02;;;8.63;;
26191;SDS011;13935;55.672;37.764;2023-08-06T00:14:07;12.15;;;8.25;;
26191;SDS011;13935;55.672;37.764;2023-08-06T00:15:11;15.43;;;8.75;;
26191;SDS011;13935;55.672;37.764;2023-08-06T00:16:13;11.57;;;7.95;;
26191;SDS011;13935;55.672;37.764;2023-08-06T00:17:16;14.20;;;8.70;;
26191;SDS011;13935;55.672;37.764;2023-08-06T00:18:18;13.38;;;8.75;;
26191;SDS011;13935;55.672;37.764;2023-08-06T00:19:20;11.93;;;8.43;;
26191;SDS011;13935;55.672;37.764;2023-08-06T00:20:23;15.23;;;8.82;;
26191;SDS011;13935;55.672;37.764;2023-08-06T00:21:25;9.63;;;8.23;;
26191;SDS011;13935;55.672;37.764;2023-08-06T00:22:27;12.98;;;9.30;;
26191;SDS011;13935;55.672;37.764;2023-08-06T00:23:29;13.55;;;9.23;;
26191;SDS011;13935;55.672;37.764;2023-08-06T00:24:31;14.93;;;9.30;;
26191;SDS011;13935;55.672;37.764;2023-08-06T00:25:33;11.43;;;8.98;;
26191;SDS011;13935;55.672;37.764;2023-08-06T00:26:35;13.13;;;9.40;;
26191;SDS011;13935;55.672;37.764;2023-08-06T00:27:37;15.45;;;9.52;;
26191;SDS011;13935;55.672;37.764;2023-08-06T00:28:41;14.20;;;9.50;;
26191;SDS011;13935;55.672;37.764;2023-08-06T00:29:43;16.02;;;9.48;;
26191;SDS011;13935;55.672;37.764;2023-08-06T00:30:45;12.35;;;9.57;;
26191;SDS011;13935;55.672;37.764;2023-08-06T00:31:47;13.38;;;9.10;;
26191;SDS011;13935;55.672;37.764;2023-08-06T00:32:49;12.30;;;9.57;;
26191;SDS011;13935;55.672;37.764;2023-08-06T00:33:51;13.60;;;10.43;;
26191;SDS011;13935;55.672;37.764;2023-08-06T00:34:54;12.10;;;9.48;;
26191;SDS011;13935;55.672;37.764;2023-08-06T00:35:56;14.55;;;9.77;;
26191;SDS011;13935;55.672;37.764;2023-08-06T00:36:58;11.75;;;9.32;;
26191;SDS011;13935;55.672;37.764;2023-08-06T00:38:00;13.63;;;10.00;;
26191;SDS011;13935;55.672;37.764;2023-08-06T00:39:02;14.57;;;9.80;;
26191;SDS011;13935;55.672;37.764;2023-08-06T00:40:05;13.35;;;10.18;;
26191;SDS011;13935;55.672;37.764;2023-08-06T00:41:08;16.48;;;10.27;;
26191;SDS011;13935;55.672;37.764;2023-08-06T00:42:11;15.00;;;11.52;;
26191;SDS011;13935;55.672;37.764;2023-08-06T00:43:16;14.95;;;11.10;;
26191;SDS011;13935;55.672;37.764;2023-08-06T00:44:18;15.23;;;11.40;;
26191;SDS011;13935;55.672;37.764;2023-08-06T00:45:21;16.65;;;12.23;;
26191;SDS011;13935;55.672;37.764;2023-08-06T00:46:25;23.80;;;13.77;;
26191;SDS011;13935;55.672;37.764;2023-08-06T00:47:28;17.58;;;11.48;;
26191;SDS011;13935;55.672;37.764;2023-08-06T00:48:30;16.35;;;11.20;;
26191;SDS011;13935;55.672;37.764;2023-08-06T00:49:34;19.33;;;11.93;;
26191;SDS011;13935;55.672;37.764;2023-08-06T00:50:37;19.85;;;13.10;;
26191;SDS011;13935;55.672;37.764;2023-08-06T00:51:39;16.55;;;12.80;;
26191;SDS011;13935;55.672;37.764;2023-08-06T00:52:42;16.17;;;12.35;;
26191;SDS011;13935;55.672;37.764;2023-08-06T00:53:44;20.17;;;14.27;;
26191;SDS011;13935;55.672;37.764;2023-08-06T00:54:46;17.60;;;13.23;;
26191;SDS011;13935;55.672;37.764;2023-08-06T00:55:49;22.25;;;14.80;;
26191;SDS011;13935;55.672;37.764;2023-08-06T00:56:53;22.92;;;14.65;;
26191;SDS011;13935;55.672;37.764;2023-08-06T00:57:55;18.50;;;13.38;;
26191;SDS011;13935;55.672;37.764;2023-08-06T00:58:58;21.65;;;13.95;;
26191;SDS011;13935;55.672;37.764;2023-08-06T01:00:00;18.88;;;12.77;;
26191;SDS011;13935;55.672;37.764;2023-08-06T01:01:02;19.65;;;12.07;;
26191;SDS011;13935;55.672;37.764;2023-08-06T01:02:05;15.50;;;11.40;;
26191;SDS011;13935;55.672;37.764;2023-08-06T01:03:08;15.60;;;12.23;;
26191;SDS011;13935;55.672;37.764;2023-08-06T01:04:10;16.10;;;11.65;;
26191;SDS011;13935;55.672;37.764;2023-08-06T01:05:14;14.75;;;9.95;;
26191;SDS011;13935;55.672;37.764;2023-08-06T01:06:16;15.85;;;10.07;;
26191;SDS011;13935;55.672;37.764;2023-08-06T01:07:36;14.20;;;10.18;;
26191;SDS011;13935;55.672;37.764;2023-08-06T01:10:19;17.30;;;9.27;;
26191;SDS011;13935;55.672;37.764;2023-08-06T01:13:14;15.98;;;10.18;;
26191;SDS011;13935;55.672;37.764;2023-08-06T01:14:28;15.13;;;10.27;;
26191;SDS011;13935;55.672;37.764;2023-08-06T01:15:39;15.75;;;10.73;;
26191;SDS011;13935;55.672;37.764;2023-08-06T01:16:45;13.93;;;10.48;;
26191;SDS011;13935;55.672;37.764;2023-08-06T01:17:48;17.55;;;10.88;;
26191;SDS011;13935;55.672;37.764;2023-08-06T01:18:51;13.13;;;9.75;;
26191;SDS011;13935;55.672;37.764;2023-08-06T01:19:57;12.70;;;9.98;;
26191;SDS011;13935;55.672;37.764;2023-08-06T01:20:59;15.35;;;9.95;;
26191;SDS011;13935;55.672;37.764;2023-08-06T01:22:01;19.48;;;9.80;;
26191;SDS011;13935;55.672;37.764;2023-08-06T01:23:04;15.80;;;9.98;;
26191;SDS011;13935;55.672;37.764;2023-08-06T01:24:06;12.93;;;10.45;;
26191;SDS011;13935;55.672;37.764;2023-08-06T01:25:08;18.75;;;12.60;;
26191;SDS011;13935;55.672;37.764;2023-08-06T01:30:43;31.60;;;20.85;;
26191;SDS011;13935;55.672;37.764;2023-08-06T01:31:31;26.75;;;20.48;;
26191;SDS011;13935;55.672;37.764;2023-08-06T01:32:36;27.17;;;18.98;;
26191;SDS011;13935;55.672;37.764;2023-08-06T01:33:44;23.92;;;19.13;;
26191;SDS011;13935;55.672;37.764;2023-08-06T01:34:49;25.35;;;19.77;;
26191;SDS011;13935;55.672;37.764;2023-08-06T01:35:53;28.02;;;19.48;;
26191;SDS011;13935;55.672;37.764;2023-08-06T01:36:56;26.23;;;19.67;;
26191;SDS011;13935;55.672;37.764;2023-08-06T01:38:01;27.98;;;19.83;;
26191;SDS011;13935;55.672;37.764;2023-08-06T01:39:04;25.88;;;19.85;;
26191;SDS011;13935;55.672;37.764;2023-08-06T01:40:11;27.92;;;19.20;;
26191;SDS011;13935;55.672;37.764;2023-08-06T01:41:14;68.57;;;50.05;;
26191;SDS011;13935;55.672;37.764;2023-08-06T01:42:16;51.65;;;40.03;;
26191;SDS011;13935;55.672;37.764;2023-08-06T01:43:18;30.63;;;20.00;;
26191;SDS011;13935;55.672;37.764;2023-08-06T01:44:25;25.20;;;19.05;;
26191;SDS011;13935;55.672;37.764;2023-08-06T01:45:27;25.23;;;19.05;;
26191;SDS011;13935;55.672;37.764;2023-08-06T01:46:29;28.52;;;19.05;;
26191;SDS011;13935;55.672;37.764;2023-08-06T01:47:31;28.98;;;19.45;;
26191;SDS011;13935;55.672;37.764;2023-08-06T01:48:34;28.23;;;18.77;;
26191;SDS011;13935;55.672;37.764;2023-08-06T01:49:36;34.25;;;20.27;;
26191;SDS011;13935;55.672;37.764;2023-08-06T01:50:43;27.92;;;18.48;;
26191;SDS011;13935;55.672;37.764;2023-08-06T01:51:45;28.52;;;19.02;;
26191;SDS011;13935;55.672;37.764;2023-08-06T01:52:47;24.48;;;18.17;;
26191;SDS011;13935;55.672;37.764;2023-08-06T01:53:49;24.83;;;18.23;;
26191;SDS011;13935;55.672;37.764;2023-08-06T01:54:52;24.33;;;18.40;;
26191;SDS011;13935;55.672;37.764;2023-08-06T01:55:56;27.10;;;18.67;;
26191;SDS011;13935;55.672;37.764;2023-08-06T01:56:58;26.80;;;18.73;;
26191;SDS011;13935;55.672;37.764;2023-08-06T01:58:00;29.00;;;18.92;;
26191;SDS011;13935;55.672;37.764;2023-08-06T01:59:03;25.77;;;17.58;;
26191;SDS011;13935;55.672;37.764;2023-08-06T02:00:07;25.58;;;17.42;;
26191;SDS011;13935;55.672;37.764;2023-08-06T02:01:15;24.15;;;17.92;;
26191;SDS011;13935;55.672;37.764;2023-08-06T02:02:25;25.42;;;18.63;;
26191;SDS011;13935;55.672;37.764;2023-08-06T02:03:27;29.55;;;18.13;;
26191;SDS011;13935;55.672;37.764;2023-08-06T02:04:29;21.77;;;16.42;;
26191;SDS011;13935;55.672;37.764;2023-08-06T02:05:31;25.60;;;17.90;;
26191;SDS011;13935;55.672;37.764;2023-08-06T02:06:33;23.88;;;18.27;;
26191;SDS011;13935;55.672;37.764;2023-08-06T02:07:35;30.40;;;17.95;;
26191;SDS011;13935;55.672;37.764;2023-08-06T02:08:37;24.52;;;18.23;;
26191;SDS011;13935;55.672;37.764;2023-08-06T02:09:41;27.48;;;19.13;;
26191;SDS011;13935;55.672;37.764;2023-08-06T02:10:44;24.92;;;18.02;;
26191;SDS011;13935;55.672;37.764;2023-08-06T02:11:46;25.02;;;17.52;;
26191;SDS011;13935;55.672;37.764;2023-08-06T02:12:48;25.77;;;17.23;;
26191;SDS011;13935;55.672;37.764;2023-08-06T02:13:51;26.48;;;18.00;;
26191;SDS011;13935;55.672;37.764;2023-08-06T02:14:53;27.83;;;18.23;;
26191;SDS011;13935;55.672;37.764;2023-08-06T02:15:55;25.45;;;18.08;;
26191;SDS011;13935;55.672;37.764;2023-08-06T02:16:59;25.15;;;18.08;;
26191;SDS011;13935;55.672;37.764;2023-08-06T02:18:01;26.55;;;18.65;;
26191;SDS011;13935;55.672;37.764;2023-08-06T02:19:03;32.38;;;18.55;;
26191;SDS011;13935;55.672;37.764;2023-08-06T02:20:09;24.92;;;18.48;;
26191;SDS011;13935;55.672;37.764;2023-08-06T02:21:11;25.40;;;17.60;;
26191;SDS011;13935;55.672;37.764;2023-08-06T02:22:13;26.65;;;18.20;;
26191;SDS011;13935;55.672;37.764;2023-08-06T02:23:16;24.60;;;18.13;;
26191;SDS011;13935;55.672;37.764;2023-08-06T02:24:18;27.50;;;18.48;;
26191;SDS011;13935;55.672;37.764;2023-08-06T02:25:20;27.55;;;17.92;;
26191;SDS011;13935;55.672;37.764;2023-08-06T02:26:22;28.45;;;18.25;;
26191;SDS011;13935;55.672;37.764;2023-08-06T02:27:24;22.65;;;17.92;;
26191;SDS011;13935;55.672;37.764;2023-08-06T02:28:27;22.92;;;18.10;;
26191;SDS011;13935;55.672;37.764;2023-08-06T02:29:29;31.83;;;18.42;;
26191;SDS011;13935;55.672;37.764;2023-08-06T02:30:32;27.83;;;18.90;;
26191;SDS011;13935;55.672;37.764;2023-08-06T02:31:37;24.27;;;18.20;;
26191;SDS011;13935;55.672;37.764;2023-08-06T02:32:40;23.67;;;17.83;;
26191;SDS011;13935;55.672;37.764;2023-08-06T02:33:42;24.02;;;18.23;;
26191;SDS011;13935;55.672;37.764;2023-08-06T02:34:45;30.30;;;18.48;;
26191;SDS011;13935;55.672;37.764;2023-08-06T02:35:48;33.10;;;20.63;;
26191;SDS011;13935;55.672;37.764;2023-08-06T02:36:50;32.53;;;22.38;;
26191;SDS011;13935;55.672;37.764;2023-08-06T02:37:53;31.42;;;20.83;;
26191;SDS011;13935;55.672;37.764;2023-08-06T02:38:56;35.70;;;20.17;;
26191;SDS011;13935;55.672;37.764;2023-08-06T02:39:59;28.00;;;20.30;;
26191;SDS011;13935;55.672;37.764;2023-08-06T02:41:04;30.48;;;19.83;;
26191;SDS011;13935;55.672;37.764;2023-08-06T02:42:06;33.28;;;19.05;;
26191;SDS011;13935;55.672;37.764;2023-08-06T02:43:09;28.45;;;19.58;;
26191;SDS011;13935;55.672;37.764;2023-08-06T02:44:11;29.15;;;19.17;;
26191;SDS011;13935;55.672;37.764;2023-08-06T02:45:14;27.67;;;18.42;;
26191;SDS011;13935;55.672;37.764;2023-08-06T02:46:16;27.88;;;18.88;;
26191;SDS011;13935;55.672;37.764;2023-08-06T02:47:18;31.17;;;19.15;;
26191;SDS011;13935;55.672;37.764;2023-08-06T02:48:20;32.72;;;18.23;;
26191;SDS011;13935;55.672;37.764;2023-08-06T02:49:22;26.10;;;18.02;;
26191;SDS011;13935;55.672;37.764;2023-08-06T02:50:25;25.30;;;19.27;;
26191;SDS011;13935;55.672;37.764;2023-08-06T02:51:27;29.08;;;20.15;;
26191;SDS011;13935;55.672;37.764;2023-08-06T02:52:29;31.42;;;18.65;;
26191;SDS011;13935;55.672;37.764;2023-08-06T02:53:31;26.50;;;18.80;;
26191;SDS011;13935;55.672;37.764;2023-08-06T02:54:37;27.42;;;18.55;;
26191;SDS011;13935;55.672;37.764;2023-08-06T02:55:45;28.63;;;18.67;;
26191;SDS011;13935;55.672;37.764;2023-08-06T02:56:52;23.05;;;17.45;;
26191;SDS011;13935;55.672;37.764;2023-08-06T02:58:01;25.15;;;17.85;;
26191;SDS011;13935;55.672;37.764;2023-08-06T02:59:11;29.75;;;17.92;;
26191;SDS011;13935;55.672;37.764;2023-08-06T03:00:25;27.35;;;18.15;;
26191;SDS011;13935;55.672;37.764;2023-08-06T03:01:27;29.42;;;17.63;;
26191;SDS011;13935;55.672;37.764;2023-08-06T03:03:58;28.70;;;17.67;;
26191;SDS011;13935;55.672;37.764;2023-08-06T03:05:09;24.83;;;17.63;;
26191;SDS011;13935;55.672;37.764;2023-08-06T03:06:16;37.00;;;18.10;;
26191;SDS011;13935;55.672;37.764;2023-08-06T03:07:22;28.77;;;18.02;;
26191;SDS011;13935;55.672;37.764;2023-08-06T03:08:33;24.85;;;17.70;;
26191;SDS011;13935;55.672;37.764;2023-08-06T03:09:36;27.60;;;18.40;;
26191;SDS011;13935;55.672;37.764;2023-08-06T03:10:39;21.02;;;17.92;;
26191;SDS011;13935;55.672;37.764;2023-08-06T03:11:44;27.70;;;17.70;;
26191;SDS011;13935;55.672;37.764;2023-08-06T03:12:48;24.92;;;17.48;;
26191;SDS011;13935;55.672;37.764;2023-08-06T03:13:51;25.25;;;18.45;;
26191;SDS011;13935;55.672;37.764;2023-08-06T03:14:53;30.55;;;17.08;;
26191;SDS011;13935;55.672;37.764;2023-08-06T03:15:56;33.50;;;18.67;;
26191;SDS011;13935;55.672;37.764;2023-08-06T03:17:00;26.85;;;18.80;;
26191;SDS011;13935;55.672;37.764;2023-08-06T03:18:03;27.35;;;19.83;;
26191;SDS011;13935;55.672;37.764;2023-08-06T03:19:07;25.75;;;19.95;;
26191;SDS011;13935;55.672;37.764;2023-08-06T03:20:13;27.20;;;19.90;;
26191;SDS011;13935;55.672;37.764;2023-08-06T03:21:15;28.00;;;20.30;;
26191;SDS011;13935;55.672;37.764;2023-08-06T03:22:17;28.83;;;19.90;;
26191;SDS011;13935;55.672;37.764;2023-08-06T03:23:20;28.67;;;19.20;;
26191;SDS011;13935;55.672;37.764;2023-08-06T03:24:22;27.80;;;20.58;;
26191;SDS011;13935;55.672;37.764;2023-08-06T03:25:25;28.02;;;20.52;;
26191;SDS011;13935;55.672;37.764;2023-08-06T03:26:27;25.30;;;20.75;;
26191;SDS011;13935;55.672;37.764;2023-08-06T03:27:30;24.70;;;20.92;;
26191;SDS011;13935;55.672;37.764;2023-08-06T03:28:32;29.08;;;21.33;;
26191;SDS011;13935;55.672;37.764;2023-08-06T03:29:35;29.17;;;21.05;;
26191;SDS011;13935;55.672;37.764;2023-08-06T03:30:39;26.55;;;21.52;;
26191;SDS011;13935;55.672;37.764;2023-08-06T03:31:43;30.85;;;22.73;;
26191;SDS011;13935;55.672;37.764;2023-08-06T03:32:48;31.60;;;22.15;;
26191;SDS011;13935;55.672;37.764;2023-08-06T03:33:53;30.27;;;21.75;;
26191;SDS011;13935;55.672;37.764;2023-08-06T03:34:59;29.02;;;22.13;;
26191;SDS011;13935;55.672;37.764;2023-08-06T03:36:04;30.80;;;22.90;;
26191;SDS011;13935;55.672;37.764;2023-08-06T03:37:08;36.75;;;24.02;;
26191;SDS011;13935;55.672;37.764;2023-08-06T03:38:10;26.35;;;22.50;;
26191;SDS011;13935;55.672;37.764;2023-08-06T03:39:12;32.20;;;23.13;;
26191;SDS011;13935;55.672;37.764;2023-08-06T03:40:18;29.38;;;24.25;;
26191;SDS011;13935;55.672;37.764;2023-08-06T03:41:21;35.35;;;23.50;;
26191;SDS011;13935;55.672;37.764;2023-08-06T03:42:23;33.38;;;23.27;;
26191;SDS011;13935;55.672;37.764;2023-08-06T03:43:25;37.00;;;24.80;;
26191;SDS011;13935;55.672;37.764;2023-08-06T03:44:28;31.15;;;24.48;;
26191;SDS011;13935;55.672;37.764;2023-08-06T03:45:31;33.17;;;24.65;;
26191;SDS011;13935;55.672;37.764;2023-08-06T03:46:33;34.33;;;25.00;;
26191;SDS011;13935;55.672;37.764;2023-08-06T03:47:39;30.13;;;24.02;;
26191;SDS011;13935;55.672;37.764;2023-08-06T03:48:42;32.95;;;24.50;;
26191;SDS011;13935;55.672;37.764;2023-08-06T03:49:44;36.28;;;25.27;;
26191;SDS011;13935;55.672;37.764;2023-08-06T03:50:50;37.00;;;24.20;;
26191;SDS011;13935;55.672;37.764;2023-08-06T03:51:55;32.42;;;23.42;;
26191;SDS011;13935;55.672;37.764;2023-08-06T03:52:57;28.30;;;22.63;;
26191;SDS011;13935;55.672;37.764;2023-08-06T03:53:59;28.67;;;21.90;;
26191;SDS011;13935;55.672;37.764;2023-08-06T03:55:01;30.63;;;22.45;;
26191;SDS011;13935;55.672;37.764;2023-08-06T03:56:05;28.60;;;21.83;;
26191;SDS011;13935;55.672;37.764;2023-08-06T03:57:07;35.45;;;21.52;;
26191;SDS011;13935;55.672;37.764;2023-08-06T03:58:09;29.33;;;21.00;;
26191;SDS011;13935;55.672;37.764;2023-08-06T03:59:11;27.33;;;19.52;;
26191;SDS011;13935;55.672;37.764;2023-08-06T04:00:15;27.85;;;19.20;;
26191;SDS011;13935;55.672;37.764;2023-08-06T04:01:22;26.80;;;20.02;;
26191;SDS011;13935;55.672;37.764;2023-08-06T04:02:24;29.52;;;18.17;;
26191;SDS011;13935;55.672;37.764;2023-08-06T04:03:25;26.98;;;19.02;;
26191;SDS011;13935;55.672;37.764;2023-08-06T04:04:28;22.48;;;18.73;;
26191;SDS011;13935;55.672;37.764;2023-08-06T04:05:31;22.48;;;16.85;;
26191;SDS011;13935;55.672;37.764;2023-08-06T04:06:34;27.10;;;16.23;;
26191;SDS011;13935;55.672;37.764;2023-08-06T04:07:36;21.33;;;16.67;;
26191;SDS011;13935;55.672;37.764;2023-08-06T04:08:38;23.00;;;17.30;;
26191;SDS011;13935;55.672;37.764;2023-08-06T04:11:14;24.45;;;16.55;;
26191;SDS011;13935;55.672;37.764;2023-08-06T04:12:16;22.35;;;17.10;;
26191;SDS011;13935;55.672;37.764;2023-08-06T04:13:18;25.02;;;18.00;;
26191;SDS011;13935;55.672;37.764;2023-08-06T04:14:21;27.08;;;16.60;;
26191;SDS011;13935;55.672;37.764;2023-08-06T04:15:25;22.23;;;16.13;;
26191;SDS011;13935;55.672;37.764;2023-08-06T04:16:27;25.35;;;15.75;;
26191;SDS011;13935;55.672;37.764;2023-08-06T04:17:29;19.52;;;15.68;;
26191;SDS011;13935;55.672;37.764;2023-08-06T04:18:31;17.70;;;15.07;;
26191;SDS011;13935;55.672;37.764;2023-08-06T04:19:33;25.02;;;16.63;;
26191;SDS011;13935;55.672;37.764;2023-08-06T04:20:42;25.35;;;15.85;;
26191;SDS011;13935;55.672;37.764;2023-08-06T04:21:47;19.35;;;14.98;;
26191;SDS011;13935;55.672;37.764;2023-08-06T04:22:48;21.73;;;15.45;;
26191;SDS011;13935;55.672;37.764;2023-08-06T04:23:50;16.75;;;14.10;;
26191;SDS011;13935;55.672;37.764;2023-08-06T04:24:53;23.48;;;15.02;;
26191;SDS011;13935;55.672;37.764;2023-08-06T04:25:57;18.35;;;15.07;;
26191;SDS011;13935;55.672;37.764;2023-08-06T04:27:03;17.70;;;14.47;;
26191;SDS011;13935;55.672;37.764;2023-08-06T04:28:06;19.20;;;13.95;;
26191;SDS011;13935;55.672;37.764;2023-08-06T04:29:09;20.75;;;15.70;;
26191;SDS011;13935;55.672;37.764;2023-08-06T04:30:11;21.67;;;16.48;;
26191;SDS011;13935;55.672;37.764;2023-08-06T04:31:16;40.50;;;36.10;;
26191;SDS011;13935;55.672;37.764;2023-08-06T04:32:18;32.67;;;27.67;;
26191;SDS011;13935;55.672;37.764;2023-08-06T04:33:25;22.90;;;13.73;;
26191;SDS011;13935;55.672;37.764;2023-08-06T04:34:27;19.98;;;13.20;;
26191;SDS011;13935;55.672;37.764;2023-08-06T04:35:29;29.30;;;17.75;;
26191;SDS011;13935;55.672;37.764;2023-08-06T04:36:31;19.33;;;12.93;;
26191;SDS011;13935;55.672;37.764;2023-08-06T04:37:34;21.65;;;16.33;;
26191;SDS011;13935;55.672;37.764;2023-08-06T04:38:36;18.80;;;11.90;;
26191;SDS011;13935;55.672;37.764;2023-08-06T04:39:37;15.30;;;11.77;;
26191;SDS011;13935;55.672;37.764;2023-08-06T04:40:43;15.02;;;12.13;;
26191;SDS011;13935;55.672;37.764;2023-08-06T04:41:45;17.40;;;11.80;;
26191;SDS011;13935;55.672;37.764;2023-08-06T04:42:47;14.00;;;12.07;;
26191;SDS011;13935;55.672;37.764;2023-08-06T04:43:49;19.95;;;12.27;;
26191;SDS011;13935;55.672;37.764;2023-08-06T04:44:51;18.85;;;12.65;;
26191;SDS011;13935;55.672;37.764;2023-08-06T04:45:54;15.77;;;12.05;;
26191;SDS011;13935;55.672;37.764;2023-08-06T04:46:56;17.17;;;12.75;;
26191;SDS011;13935;55.672;37.764;2023-08-06T04:47:58;20.02;;;12.93;;
26191;SDS011;13935;55.672;37.764;2023-08-06T04:49:00;19.85;;;12.63;;
26191;SDS011;13935;55.672;37.764;2023-08-06T04:50:02;19.95;;;12.23;;
26191;SDS011;13935;55.672;37.764;2023-08-06T04:51:05;16.67;;;12.07;;
26191;SDS011;13935;55.672;37.764;2023-08-06T04:52:07;19.52;;;12.13;;
26191;SDS011;13935;55.672;37.764;2023-08-06T04:53:09;14.20;;;11.43;;
26191;SDS011;13935;55.672;37.764;2023-08-06T04:54:11;19.95;;;11.40;;
26191;SDS011;13935;55.672;37.764;2023-08-06T04:55:13;15.25;;;11.30;;
26191;SDS011;13935;55.672;37.764;2023-08-06T04:56:16;17.73;;;10.77;;
26191;SDS011;13935;55.672;37.764;2023-08-06T04:57:18;14.75;;;10.48;;
26191;SDS011;13935;55.672;37.764;2023-08-06T04:58:21;17.00;;;10.85;;
26191;SDS011;13935;55.672;37.764;2023-08-06T04:59:23;14.93;;;11.40;;
26191;SDS011;13935;55.672;37.764;2023-08-06T05:00:25;15.68;;;10.20;;
26191;SDS011;13935;55.672;37.764;2023-08-06T05:01:27;14.93;;;10.35;;
26191;SDS011;13935;55.672;37.764;2023-08-06T05:02:30;13.60;;;10.27;;
26191;SDS011;13935;55.672;37.764;2023-08-06T05:03:33;18.38;;;10.38;;
26191;SDS011;13935;55.672;37.764;2023-08-06T05:04:37;16.48;;;9.65;;
26191;SDS011;13935;55.672;37.764;2023-08-06T05:05:40;14.70;;;10.50;;
26191;SDS011;13935;55.672;37.764;2023-08-06T05:06:43;14.75;;;10.57;;
26191;SDS011;13935;55.672;37.764;2023-08-06T05:07:47;19.33;;;13.98;;
26191;SDS011;13935;55.672;37.764;2023-08-06T05:08:53;16.10;;;12.30;;
26191;SDS011;13935;55.672;37.764;2023-08-06T05:09:55;44.88;;;40.72;;
26191;SDS011;13935;55.672;37.764;2023-08-06T05:10:57;14.75;;;10.48;;
26191;SDS011;13935;55.672;37.764;2023-08-06T05:12:03;13.13;;;11.07;;
26191;SDS011;13935;55.672;37.764;2023-08-06T05:13:05;16.08;;;10.35;;
26191;SDS011;13935;55.672;37.764;2023-08-06T05:14:07;13.27;;;10.90;;
26191;SDS011;13935;55.672;37.764;2023-08-06T05:15:09;17.95;;;11.13;;
26191;SDS011;13935;55.672;37.764;2023-08-06T05:16:11;17.40;;;11.07;;
26191;SDS011;13935;55.672;37.764;2023-08-06T05:17:13;16.63;;;10.65;;
26191;SDS011;13935;55.672;37.764;2023-08-06T05:18:15;15.23;;;11.30;;
26191;SDS011;13935;55.672;37.764;2023-08-06T05:19:17;16.52;;;10.95;;
26191;SDS011;13935;55.672;37.764;2023-08-06T05:20:20;16.67;;;12.43;;
26191;SDS011;13935;55.672;37.764;2023-08-06T05:21:22;16.20;;;13.13;;
26191;SDS011;13935;55.672;37.764;2023-08-06T05:22:24;13.65;;;11.18;;
26191;SDS011;13935;55.672;37.764;2023-08-06T05:23:29;16.23;;;11.02;;
26191;SDS011;13935;55.672;37.764;2023-08-06T05:24:31;15.50;;;10.65;;
26191;SDS011;13935;55.672;37.764;2023-08-06T05:25:36;14.60;;;9.95;;
26191;SDS011;13935;55.672;37.764;2023-08-06T05:26:38;13.63;;;9.52;;
26191;SDS011;13935;55.672;37.764;2023-08-06T05:27:40;15.35;;;10.02;;
26191;SDS011;13935;55.672;37.764;2023-08-06T05:28:42;16.80;;;10.60;;
26191;SDS011;13935;55.672;37.764;2023-08-06T05:29:44;15.18;;;10.38;;
26191;SDS011;13935;55.672;37.764;2023-08-06T05:30:51;16.40;;;10.25;;
26191;SDS011;13935;55.672;37.764;2023-08-06T05:31:53;18.17;;;14.20;;
26191;SDS011;13935;55.672;37.764;2023-08-06T05:32:55;18.00;;;10.45;;
26191;SDS011;13935;55.672;37.764;2023-08-06T05:33:58;18.20;;;11.43;;
26191;SDS011;13935;55.672;37.764;2023-08-06T05:34:59;13.43;;;9.77;;
26191;SDS011;13935;55.672;37.764;2023-08-06T05:36:02;19.30;;;10.73;;
26191;SDS011;13935;55.672;37.764;2023-08-06T05:37:04;18.92;;;10.63;;
26191;SDS011;13935;55.672;37.764;2023-08-06T05:38:06;15.55;;;9.85;;
26191;SDS011;13935;55.672;37.764;2023-08-06T05:39:09;16.77;;;10.32;;
26191;SDS011;13935;55.672;37.764;2023-08-06T05:40:11;12.98;;;10.07;;
26191;SDS011;13935;55.672;37.764;2023-08-06T05:41:13;15.60;;;10.32;;
26191;SDS011;13935;55.672;37.764;2023-08-06T05:42:18;16.55;;;10.43;;
26191;SDS011;13935;55.672;37.764;2023-08-06T05:43:20;18.13;;;10.95;;
26191;SDS011;13935;55.672;37.764;2023-08-06T05:44:23;14.40;;;10.35;;
26191;SDS011;13935;55.672;37.764;2023-08-06T05:45:25;15.05;;;10.70;;
26191;SDS011;13935;55.672;37.764;2023-08-06T05:46:26;15.02;;;10.43;;
26191;SDS011;13935;55.672;37.764;2023-08-06T05:47:28;15.45;;;10.18;;
26191;SDS011;13935;55.672;37.764;2023-08-06T05:48:30;15.20;;;12.15;;
26191;SDS011;13935;55.672;37.764;2023-08-06T05:49:33;20.02;;;12.55;;
26191;SDS011;13935;55.672;37.764;2023-08-06T05:50:35;31.65;;;28.55;;
26191;SDS011;13935;55.672;37.764;2023-08-06T05:51:37;17.73;;;15.32;;
26191;SDS011;13935;55.672;37.764;2023-08-06T05:52:39;17.27;;;12.68;;
26191;SDS011;13935;55.672;37.764;2023-08-06T05:53:41;18.48;;;15.48;;
26191;SDS011;13935;55.672;37.764;2023-08-06T05:54:43;18.50;;;14.60;;
26191;SDS011;13935;55.672;37.764;2023-08-06T05:55:47;14.45;;;11.70;;
26191;SDS011;13935;55.672;37.764;2023-08-06T05:56:49;13.85;;;12.00;;
26191;SDS011;13935;55.672;37.764;2023-08-06T05:57:51;19.20;;;12.75;;
26191;SDS011;13935;55.672;37.764;2023-08-06T05:58:54;17.85;;;11.10;;
26191;SDS011;13935;55.672;37.764;2023-08-06T05:59:56;17.67;;;12.88;;
26191;SDS011;13935;55.672;37.764;2023-08-06T06:00:59;18.92;;;11.93;;
26191;SDS011;13935;55.672;37.764;2023-08-06T06:02:01;19.02;;;11.90;;
26191;SDS011;13935;55.672;37.764;2023-08-06T06:03:03;14.85;;;10.80;;
26191;SDS011;13935;55.672;37.764;2023-08-06T06:04:05;18.23;;;11.90;;
26191;SDS011;13935;55.672;37.764;2023-08-06T06:05:09;18.58;;;11.60;;
26191;SDS011;13935;55.672;37.764;2023-08-06T06:06:11;16.27;;;10.40;;
26191;SDS011;13935;55.672;37.764;2023-08-06T06:07:15;15.75;;;10.73;;
26191;SDS011;13935;55.672;37.764;2023-08-06T06:08:17;16.75;;;10.15;;
26191;SDS011;13935;55.672;37.764;2023-08-06T06:09:19;16.60;;;10.43;;
26191;SDS011;13935;55.672;37.764;2023-08-06T06:10:21;13.65;;;9.77;;
26191;SDS011;13935;55.672;37.764;2023-08-06T06:11:25;17.73;;;10.68;;
26191;SDS011;13935;55.672;37.764;2023-08-06T06:12:26;11.88;;;10.35;;
26191;SDS011;13935;55.672;37.764;2023-08-06T06:13:28;16.02;;;10.68;;
26191;SDS011;13935;55.672;37.764;2023-08-06T06:14:30;17.17;;;10.50;;
26191;SDS011;13935;55.672;37.764;2023-08-06T06:15:33;20.17;;;10.25;;